Time;durP1;ratioP1;P1;durP2;ratioP2;P2;SDS_P1;SDS_P2;PMS_P1;PMS_P2;Temp;Humidity;BMP_temperature;BMP_pressure;BME280_temperature;BME280_humidity;BME280_pressure;Samples;Min_cycle;Max_cycle;Signal;HPM_P1;HPM_P2
2022/04/29 00:02:15;;;;;;;7.65;2.10;;;7.30;99.90;;;;;;4998013;28;20061;-72
2022/04/29 00:04:42;;;;;;;11.75;2.05;;;7.30;99.90;;;;;;5004997;28;20041;-72
2022/04/29 00:07:10;;;;;;;4.47;1.67;;;7.30;99.90;;;;;;4989471;28;20449;-72
2022/04/29 00:09:37;;;;;;;11.38;1.90;;;7.30;99.90;;;;;;5006518;28;20041;-72
2022/04/29 00:12:05;;;;;;;12.18;2.10;;;7.30;99.90;;;;;;5006057;28;20553;-72
2022/04/29 00:14:31;;;;;;;9.27;2.50;;;7.30;99.90;;;;;;4990760;28;20046;-72
2022/04/29 00:16:57;;;;;;;8.27;2.38;;;7.30;99.90;;;;;;5003908;28;20048;-72
2022/04/29 00:19:23;;;;;;;11.90;2.90;;;7.20;99.90;;;;;;5006108;28;20127;-72
2022/04/29 00:21:49;;;;;;;15.32;2.00;;;7.20;99.90;;;;;;5005864;28;20049;-71
2022/04/29 00:24:16;;;;;;;6.50;1.85;;;7.30;99.90;;;;;;5005373;28;20065;-72
2022/04/29 00:26:42;;;;;;;8.07;1.80;;;7.30;99.90;;;;;;4989737;28;20065;-72
2022/04/29 00:29:09;;;;;;;9.68;2.05;;;7.30;99.90;;;;;;4987508;28;20061;-71
2022/04/29 00:31:35;;;;;;;10.23;2.30;;;7.30;99.90;;;;;;4986676;28;20038;-72
2022/04/29 00:34:01;;;;;;;12.38;2.63;;;7.30;99.90;;;;;;4985750;28;20057;-72
2022/04/29 00:36:27;;;;;;;17.00;3.00;;;7.30;99.90;;;;;;4970499;28;20092;-72
2022/04/29 00:38:53;;;;;;;11.00;2.45;;;7.30;99.90;;;;;;4969913;28;20626;-72
2022/04/29 00:41:20;;;;;;;22.20;2.72;;;7.30;99.90;;;;;;4993249;28;20749;-72
2022/04/29 00:43:46;;;;;;;9.57;2.30;;;7.30;99.90;;;;;;5005381;28;20416;-72
2022/04/29 00:46:12;;;;;;;10.23;2.25;;;7.30;99.90;;;;;;4989087;28;20045;-72
2022/04/29 00:48:38;;;;;;;14.13;2.35;;;7.40;99.90;;;;;;4973479;28;20067;-72
2022/04/29 00:51:05;;;;;;;8.68;2.28;;;7.40;99.90;;;;;;5005251;28;20382;-72
2022/04/29 00:53:31;;;;;;;11.68;2.30;;;7.40;99.90;;;;;;4987881;28;20273;-72
2022/04/29 00:55:57;;;;;;;9.93;2.58;;;7.30;99.90;;;;;;5005074;28;20580;-72
2022/04/29 00:58:34;;;;;;;8.25;2.10;;;7.30;99.90;;;;;;4988462;28;20080;-73
2022/04/29 01:01:02;;;;;;;10.57;2.70;;;7.30;99.90;;;;;;4987277;28;20041;-72
2022/04/29 01:03:28;;;;;;;11.77;2.20;;;7.30;99.90;;;;;;4985388;28;20543;-72
2022/04/29 01:05:54;;;;;;;13.07;2.38;;;7.20;99.90;;;;;;4986777;28;20042;-72
2022/04/29 01:08:20;;;;;;;10.82;2.40;;;7.10;99.90;;;;;;4985004;28;20050;-72
2022/04/29 01:10:47;;;;;;;10.02;1.63;;;7.20;99.90;;;;;;5000969;28;20050;-71
2022/04/29 01:13:14;;;;;;;10.07;2.47;;;7.10;99.90;;;;;;5004719;28;20042;-72
2022/04/29 01:15:40;;;;;;;16.23;2.40;;;7.10;99.90;;;;;;4987883;28;20103;-71
2022/04/29 01:18:08;;;;;;;6.88;2.00;;;7.10;99.90;;;;;;5004973;28;20045;-72
2022/04/29 01:20:36;;;;;;;8.23;2.20;;;7.10;99.90;;;;;;5005613;28;20085;-72
2022/04/29 01:23:06;;;;;;;7.97;2.17;;;7.10;99.90;;;;;;4989103;28;20417;-72
2022/04/29 01:25:32;;;;;;;12.02;2.40;;;7.10;99.90;;;;;;5002775;28;20056;-72
2022/04/29 01:27:59;;;;;;;8.00;2.13;;;7.10;99.90;;;;;;5005723;28;20123;-72
2022/04/29 01:30:25;;;;;;;9.60;2.08;;;7.10;99.90;;;;;;5004194;28;20054;-72
2022/04/29 01:32:53;;;;;;;6.93;1.98;;;7.10;99.90;;;;;;5005119;28;20042;-72
2022/04/29 01:35:19;;;;;;;9.90;2.00;;;7.00;99.90;;;;;;4988182;28;20042;-72
2022/04/29 01:37:45;;;;;;;9.55;2.28;;;7.00;99.90;;;;;;5004831;28;20081;-72
2022/04/29 01:40:13;;;;;;;12.65;2.15;;;7.00;99.90;;;;;;5005102;28;20056;-72
2022/04/29 01:42:41;;;;;;;6.05;1.90;;;7.00;99.90;;;;;;5005077;28;20052;-73
2022/04/29 01:45:08;;;;;;;8.25;2.00;;;7.00;99.90;;;;;;5005209;28;20049;-71
2022/04/29 01:47:34;;;;;;;7.38;1.90;;;7.00;99.90;;;;;;4988187;28;20700;-72
2022/04/29 01:50:01;;;;;;;11.52;1.92;;;7.00;99.90;;;;;;5002374;28;20042;-72
2022/04/29 01:52:27;;;;;;;8.52;2.30;;;7.00;99.90;;;;;;4984637;28;20050;-72
2022/04/29 01:54:53;;;;;;;7.57;1.75;;;6.90;99.90;;;;;;4986922;28;20153;-72
2022/04/29 01:57:18;;;;;;;8.15;2.40;;;6.90;99.90;;;;;;4988899;28;20050;-72
2022/04/29 01:59:44;;;;;;;4.15;1.77;;;6.90;99.90;;;;;;4989438;28;20058;-72
2022/04/29 02:02:10;;;;;;;8.32;2.90;;;6.90;99.90;;;;;;4990161;28;20444;-72
2022/04/29 02:04:36;;;;;;;8.13;2.42;;;6.90;99.90;;;;;;4990765;28;20050;-72
2022/04/29 02:07:03;;;;;;;6.57;2.22;;;6.90;99.90;;;;;;4992900;28;20407;-72
2022/04/29 02:09:29;;;;;;;8.45;2.63;;;6.80;99.90;;;;;;5008103;28;20100;-72
2022/04/29 02:12:04;;;;;;;12.13;2.53;;;6.80;99.90;;;;;;5009068;28;20078;-72
2022/04/29 02:14:32;;;;;;;8.25;2.72;;;6.90;99.90;;;;;;5008053;28;20042;-72
2022/04/29 02:16:58;;;;;;;10.98;2.88;;;6.90;99.90;;;;;;4973832;28;20054;-73
2022/04/29 02:19:25;;;;;;;11.75;2.50;;;6.90;99.90;;;;;;4972942;28;20448;-72
2022/04/29 02:21:52;;;;;;;10.32;3.17;;;6.90;99.90;;;;;;4972725;28;20043;-72
2022/04/29 02:24:17;;;;;;;8.27;2.95;;;6.90;99.90;;;;;;4988321;28;20481;-72
2022/04/29 02:26:43;;;;;;;9.85;2.38;;;6.70;99.90;;;;;;4988695;28;20046;-72
2022/04/29 02:29:09;;;;;;;12.07;2.45;;;6.90;99.90;;;;;;5003851;28;20492;-72
2022/04/29 02:31:35;;;;;;;10.90;2.42;;;6.80;99.90;;;;;;4971833;28;20050;-72
2022/04/29 02:34:01;;;;;;;7.65;2.53;;;6.80;99.90;;;;;;4988753;28;20038;-72
2022/04/29 02:36:28;;;;;;;5.75;2.33;;;6.80;99.90;;;;;;4988153;28;20097;-72
2022/04/29 02:38:53;;;;;;;4.80;2.35;;;6.70;99.90;;;;;;4988428;28;20054;-72
2022/04/29 02:41:19;;;;;;;10.90;2.50;;;6.70;99.90;;;;;;4983233;28;20091;-72
2022/04/29 02:43:45;;;;;;;9.55;2.80;;;6.60;99.90;;;;;;5007947;28;20129;-72
2022/04/29 02:46:11;;;;;;;6.85;2.42;;;6.70;99.90;;;;;;4991970;28;20477;-72
2022/04/29 02:48:36;;;;;;;10.85;3.08;;;6.60;99.90;;;;;;5007181;28;20157;-72
2022/04/29 02:51:05;;;;;;;9.07;2.53;;;6.60;99.90;;;;;;4992287;28;20068;-72
2022/04/29 02:53:34;;;;;;;6.78;2.55;;;6.60;99.90;;;;;;5005723;28;20045;-72
2022/04/29 02:55:59;;;;;;;11.57;2.45;;;6.50;99.90;;;;;;5006875;28;20108;-72
2022/04/29 02:58:25;;;;;;;8.15;2.40;;;6.50;99.90;;;;;;4991474;28;20061;-72
2022/04/29 03:00:51;;;;;;;9.88;2.65;;;6.50;99.90;;;;;;5006826;28;20125;-72
2022/04/29 03:03:16;;;;;;;15.23;2.55;;;6.50;99.90;;;;;;5008083;28;20057;-72
2022/04/29 03:05:42;;;;;;;11.25;2.92;;;6.50;99.90;;;;;;4989533;28;20049;-72
2022/04/29 03:08:08;;;;;;;10.50;2.92;;;6.50;99.90;;;;;;5008020;28;20050;-72
2022/04/29 03:10:34;;;;;;;18.20;3.53;;;6.50;99.90;;;;;;5006531;28;20050;-72
2022/04/29 03:13:01;;;;;;;6.10;2.42;;;6.50;99.90;;;;;;4991332;28;20050;-73
2022/04/29 03:15:27;;;;;;;8.77;2.80;;;6.60;99.90;;;;;;5007368;28;20479;-72
2022/04/29 03:20:40;;;;;;;5.95;2.38;;;6.60;99.90;;;;;;5007565;28;20460;-72
2022/04/29 03:23:06;;;;;;;9.45;2.60;;;6.60;99.90;;;;;;5006936;28;20054;-72
2022/04/29 03:25:33;;;;;;;9.18;2.60;;;6.60;99.90;;;;;;4974523;28;20504;-72
2022/04/29 03:27:58;;;;;;;9.63;2.40;;;6.50;99.90;;;;;;5006872;28;20054;-72
2022/04/29 03:30:24;;;;;;;6.50;2.30;;;6.60;99.90;;;;;;4988962;28;20057;-72
2022/04/29 03:32:55;;;;;;;14.68;2.70;;;6.60;99.90;;;;;;5006440;28;20386;-72
2022/04/29 03:35:22;;;;;;;10.52;2.53;;;6.60;99.90;;;;;;5006780;28;20052;-72
2022/04/29 03:37:51;;;;;;;6.78;2.17;;;6.60;99.90;;;;;;4991421;28;20056;-72
2022/04/29 03:40:23;;;;;;;7.60;2.72;;;6.60;99.90;;;;;;5006424;28;20053;-72
2022/04/29 03:42:49;;;;;;;6.75;2.70;;;6.60;99.90;;;;;;4991512;28;20045;-72
2022/04/29 03:45:15;;;;;;;6.90;2.45;;;6.60;99.90;;;;;;5006707;28;20132;-72
2022/04/29 03:47:42;;;;;;;11.57;2.80;;;6.50;99.90;;;;;;5006948;28;20077;-71
2022/04/29 03:50:08;;;;;;;10.18;2.42;;;6.50;99.90;;;;;;4974093;28;20049;-72
2022/04/29 03:52:34;;;;;;;12.00;2.53;;;6.50;99.90;;;;;;5006879;28;20132;-72
2022/04/29 03:55:00;;;;;;;5.20;2.28;;;6.50;99.90;;;;;;5006528;28;20476;-72
2022/04/29 03:57:26;;;;;;;7.20;2.28;;;6.50;99.90;;;;;;4970040;28;20097;-72
2022/04/29 03:59:52;;;;;;;15.50;2.90;;;6.60;99.90;;;;;;4987494;28;20050;-72
2022/04/29 04:02:17;;;;;;;14.93;2.63;;;6.60;99.90;;;;;;4986836;28;20061;-72
2022/04/29 04:04:44;;;;;;;14.65;2.58;;;6.60;99.90;;;;;;4986860;28;20074;-72
2022/04/29 04:07:10;;;;;;;5.90;2.38;;;6.70;99.90;;;;;;4987181;28;20065;-72
2022/04/29 04:09:36;;;;;;;6.80;2.10;;;6.70;99.90;;;;;;4966102;28;20397;-72
2022/04/29 04:12:02;;;;;;;11.70;2.10;;;6.80;99.90;;;;;;4970809;28;20058;-72
2022/04/29 04:14:28;;;;;;;11.38;2.90;;;6.80;99.90;;;;;;4986128;28;20046;-72
2022/04/29 04:16:53;;;;;;;8.07;2.15;;;6.80;99.90;;;;;;4970810;28;20053;-72
2022/04/29 04:19:19;;;;;;;6.60;2.10;;;6.90;99.90;;;;;;4969704;28;20489;-72
2022/04/29 04:21:45;;;;;;;10.13;2.42;;;6.90;99.90;;;;;;5000208;28;20072;-72
2022/04/29 04:24:11;;;;;;;9.50;2.45;;;6.90;99.90;;;;;;4989236;28;20425;-72
2022/04/29 04:26:37;;;;;;;7.28;2.03;;;6.90;99.90;;;;;;4989472;28;20057;-72
2022/04/29 04:29:02;;;;;;;5.93;2.30;;;7.00;99.90;;;;;;5005795;28;20048;-72
2022/04/29 04:31:29;;;;;;;4.57;2.00;;;7.00;99.90;;;;;;5005172;28;20050;-72
2022/04/29 04:33:55;;;;;;;8.15;2.25;;;7.00;99.90;;;;;;5005618;28;20117;-71
2022/04/29 04:36:21;;;;;;;11.95;2.05;;;7.00;99.90;;;;;;5005685;28;20180;-72
2022/04/29 04:38:47;;;;;;;7.15;1.90;;;7.10;99.90;;;;;;4989311;28;20050;-72
2022/04/29 04:41:17;;;;;;;7.45;2.03;;;7.00;99.90;;;;;;4989180;28;20042;-72
2022/04/29 04:43:44;;;;;;;4.03;1.98;;;7.10;99.90;;;;;;5005761;28;20038;-72
2022/04/29 04:46:12;;;;;;;10.63;2.55;;;7.20;99.90;;;;;;5004221;28;20502;-72
2022/04/29 04:48:38;;;;;;;7.47;2.30;;;7.20;99.90;;;;;;5005122;28;20401;-72
2022/04/29 04:51:04;;;;;;;13.77;2.40;;;7.20;99.90;;;;;;4989472;28;20050;-72
2022/04/29 04:53:30;;;;;;;14.63;1.95;;;7.30;99.90;;;;;;4988287;28;20048;-72
2022/04/29 04:55:56;;;;;;;14.30;2.15;;;7.40;99.90;;;;;;5006048;28;20089;-72
2022/04/29 04:58:22;;;;;;;3.90;1.23;;;7.40;99.90;;;;;;5001959;28;20094;-72
2022/04/29 05:00:47;;;;;;;3.30;1.67;;;7.40;99.90;;;;;;4986048;28;20112;-72
2022/04/29 05:03:13;;;;;;;14.85;2.17;;;7.40;99.90;;;;;;4977369;28;20132;-72
2022/04/29 05:05:39;;;;;;;8.70;1.98;;;7.60;99.90;;;;;;5002232;28;20110;-72
2022/04/29 05:08:05;;;;;;;4.78;1.45;;;7.60;99.90;;;;;;4985586;28;20166;-72
2022/04/29 05:10:31;;;;;;;9.13;1.60;;;7.60;99.90;;;;;;4986255;28;20054;-72
2022/04/29 05:12:57;;;;;;;8.80;2.13;;;7.70;99.90;;;;;;4989193;28;20056;-72
2022/04/29 05:15:22;;;;;;;9.95;1.90;;;7.70;99.90;;;;;;5004867;28;20045;-72
2022/04/29 05:17:48;;;;;;;4.88;1.38;;;7.70;99.90;;;;;;4989133;28;20452;-72
2022/04/29 05:20:16;;;;;;;9.23;1.42;;;7.80;99.90;;;;;;5004859;28;20037;-72
2022/04/29 05:22:43;;;;;;;8.55;1.92;;;7.90;99.90;;;;;;5000551;28;20053;-72
2022/04/29 05:25:09;;;;;;;8.80;2.15;;;7.90;99.90;;;;;;4996760;28;20072;-72
2022/04/29 05:27:35;;;;;;;13.25;1.65;;;7.90;99.90;;;;;;5004562;28;20125;-72
2022/04/29 05:30:02;;;;;;;12.38;1.75;;;8.00;99.90;;;;;;4970879;28;20196;-72
2022/04/29 05:32:29;;;;;;;4.78;1.50;;;8.10;99.90;;;;;;4968995;28;20042;-72
2022/04/29 05:34:56;;;;;;;11.57;1.60;;;8.10;99.90;;;;;;4986093;28;20122;-72
2022/04/29 05:37:22;;;;;;;7.30;1.50;;;8.20;99.90;;;;;;4985155;28;20058;-72
2022/04/29 05:42:32;;;;;;;5.72;1.55;;;8.20;99.90;;;;;;4971294;28;20050;-72
2022/04/29 05:45:00;;;;;;;14.20;2.35;;;8.20;99.90;;;;;;4974194;28;20038;-72
2022/04/29 05:47:26;;;;;;;6.55;1.45;;;8.30;99.90;;;;;;5003274;28;20548;-72
2022/04/29 05:49:51;;;;;;;6.88;1.92;;;8.40;99.90;;;;;;4993348;28;20042;-72
2022/04/29 05:52:18;;;;;;;5.68;1.27;;;8.50;99.90;;;;;;4989279;28;20515;-72
2022/04/29 05:54:45;;;;;;;8.65;1.45;;;8.50;99.90;;;;;;4975243;28;20074;-72
2022/04/29 05:57:11;;;;;;;7.15;2.00;;;8.50;99.90;;;;;;4969669;28;20089;-72
2022/04/29 05:59:37;;;;;;;4.82;1.10;;;8.50;99.90;;;;;;4981098;28;20469;-72
2022/04/29 06:02:03;;;;;;;7.32;1.50;;;8.50;99.90;;;;;;5004200;28;20116;-72
2022/04/29 06:04:29;;;;;;;6.75;1.33;;;8.50;99.90;;;;;;5004087;28;20424;-72
2022/04/29 06:06:55;;;;;;;9.43;1.83;;;8.50;99.90;;;;;;4994446;28;20042;-72
2022/04/29 06:09:20;;;;;;;9.88;1.70;;;8.50;99.90;;;;;;4997930;28;21114;-72
2022/04/29 06:11:46;;;;;;;8.13;1.75;;;8.50;99.90;;;;;;4984852;28;20068;-72
2022/04/29 06:14:12;;;;;;;9.55;1.95;;;8.50;99.90;;;;;;4988066;28;20054;-73
2022/04/29 06:16:38;;;;;;;5.30;1.58;;;8.50;99.90;;;;;;5004225;28;20300;-72
2022/04/29 06:19:03;;;;;;;6.07;1.10;;;8.50;99.90;;;;;;4972464;28;20123;-72
2022/04/29 06:21:29;;;;;;;6.78;1.40;;;8.50;99.50;;;;;;4984180;28;20047;-72
2022/04/29 06:23:55;;;;;;;4.25;1.40;;;8.40;99.90;;;;;;4968171;28;20566;-71
2022/04/29 06:26:21;;;;;;;11.50;1.27;;;8.40;99.90;;;;;;4985322;28;20054;-72
2022/04/29 06:28:46;;;;;;;7.88;1.55;;;8.50;99.90;;;;;;4983910;28;20303;-72
2022/04/29 06:31:13;;;;;;;4.53;1.30;;;8.50;99.90;;;;;;4969805;28;20065;-72
2022/04/29 06:33:38;;;;;;;3.05;1.27;;;8.50;99.90;;;;;;4968678;28;20042;-73
2022/04/29 06:36:06;;;;;;;5.85;1.40;;;8.50;99.90;;;;;;4967355;28;20050;-73
2022/04/29 06:38:31;;;;;;;3.78;1.25;;;8.50;99.90;;;;;;4982483;28;20139;-73
2022/04/29 06:40:58;;;;;;;9.30;1.42;;;8.60;99.90;;;;;;4984163;28;20050;-73
2022/04/29 06:43:24;;;;;;;3.78;1.20;;;8.60;99.90;;;;;;4980033;28;20510;-71
2022/04/29 06:45:50;;;;;;;9.40;1.50;;;8.60;99.90;;;;;;4988870;28;20038;-72
2022/04/29 06:48:15;;;;;;;8.15;1.55;;;8.60;99.90;;;;;;5005855;28;20100;-73
2022/04/29 06:50:42;;;;;;;5.05;1.20;;;8.60;99.90;;;;;;5005155;28;20081;-71
2022/04/29 06:53:07;;;;;;;6.45;1.02;;;8.80;99.90;;;;;;5006539;28;20042;-72
2022/04/29 06:55:37;;;;;;;6.15;1.10;;;8.80;99.70;;;;;;5007134;28;20061;-73
2022/04/29 06:58:03;;;;;;;2.55;0.93;;;8.80;97.60;;;;;;4991691;28;20049;-73
2022/04/29 07:00:29;;;;;;;4.10;0.98;;;8.90;98.50;;;;;;4990448;28;20381;-72
2022/04/29 07:02:56;;;;;;;4.90;1.15;;;8.90;97.70;;;;;;5006356;28;20046;-73
2022/04/29 07:05:23;;;;;;;4.55;1.20;;;8.90;99.90;;;;;;5006638;28;20433;-72
2022/04/29 07:07:50;;;;;;;9.65;1.27;;;8.90;99.50;;;;;;4987531;28;20042;-72
2022/04/29 07:10:16;;;;;;;6.85;1.40;;;9.00;99.90;;;;;;4989867;28;20638;-72
2022/04/29 07:12:43;;;;;;;4.95;1.48;;;9.00;98.20;;;;;;4980284;28;20046;-73
2022/04/29 07:15:13;;;;;;;5.72;1.42;;;9.00;96.40;;;;;;5003920;28;20081;-72
2022/04/29 07:17:43;;;;;;;7.40;1.50;;;9.00;97.50;;;;;;5004082;28;20045;-72
2022/04/29 07:20:11;;;;;;;8.38;1.63;;;9.10;98.20;;;;;;5004360;28;20045;-72
2022/04/29 07:22:40;;;;;;;9.43;1.67;;;9.30;99.30;;;;;;5004752;28;20467;-72
2022/04/29 07:25:08;;;;;;;4.45;1.65;;;9.30;99.80;;;;;;5004754;28;20138;-72
2022/04/29 07:27:34;;;;;;;3.90;1.48;;;9.50;99.90;;;;;;4988994;28;20049;-72
2022/04/29 07:30:00;;;;;;;7.65;1.88;;;9.60;99.80;;;;;;5003464;28;20045;-72
2022/04/29 07:32:27;;;;;;;10.95;2.15;;;9.70;98.40;;;;;;5005367;28;20625;-72
2022/04/29 07:43:06;;;;;;;3.30;1.50;;;9.60;98.40;;;;;;4989891;28;20321;-72
2022/04/29 07:45:32;;;;;;;8.35;1.52;;;9.60;97.30;;;;;;5001642;28;20584;-72
2022/04/29 07:48:05;;;;;;;5.25;1.45;;;9.70;99.70;;;;;;5001673;28;20108;-71
2022/04/29 07:50:31;;;;;;;4.35;1.30;;;9.90;99.50;;;;;;5004410;28;20116;-71
2022/04/29 07:52:58;;;;;;;6.78;1.65;;;10.00;97.00;;;;;;5001244;28;20057;-72
2022/04/29 07:55:24;;;;;;;5.55;1.77;;;10.10;97.20;;;;;;5003303;28;20049;-72
2022/04/29 07:57:50;;;;;;;12.45;1.92;;;10.20;97.50;;;;;;5003614;28;20057;-71
2022/04/29 08:00:17;;;;;;;7.55;1.65;;;10.30;98.90;;;;;;5002515;28;20050;-72
2022/04/29 08:02:43;;;;;;;6.40;1.42;;;10.30;94.70;;;;;;4992957;28;20053;-71
2022/04/29 08:05:09;;;;;;;5.70;1.60;;;10.40;97.50;;;;;;4983588;28;20049;-71
2022/04/29 08:07:34;;;;;;;4.43;1.60;;;10.50;95.70;;;;;;4970536;28;20050;-71
2022/04/29 08:10:00;;;;;;;12.55;1.73;;;10.50;93.40;;;;;;4995035;28;20096;-72
2022/04/29 08:12:29;;;;;;;3.22;1.25;;;10.50;94.50;;;;;;5005976;28;20409;-72
2022/04/29 08:14:56;;;;;;;5.53;1.35;;;10.30;91.30;;;;;;4989640;28;20049;-71
2022/04/29 08:17:22;;;;;;;4.82;1.55;;;10.10;91.70;;;;;;5004819;28;20141;-71
2022/04/29 08:19:49;;;;;;;6.22;1.73;;;10.00;96.20;;;;;;5004197;28;20042;-71
2022/04/29 08:22:19;;;;;;;9.02;2.08;;;10.00;98.00;;;;;;5000141;28;20042;-72
2022/04/29 08:24:45;;;;;;;6.28;1.45;;;10.00;95.00;;;;;;5003399;28;20089;-71
2022/04/29 08:27:11;;;;;;;7.90;1.63;;;10.00;96.40;;;;;;4994322;28;20447;-72
2022/04/29 08:29:38;;;;;;;6.57;1.60;;;10.00;96.30;;;;;;5002868;28;20049;-72
2022/04/29 08:32:04;;;;;;;7.60;1.30;;;9.80;91.90;;;;;;5005987;28;20120;-72
2022/04/29 08:34:31;;;;;;;9.75;1.40;;;9.70;94.60;;;;;;5005456;28;20095;-72
2022/04/29 08:36:57;;;;;;;3.35;1.00;;;9.60;95.80;;;;;;4985813;28;20101;-72
2022/04/29 08:39:23;;;;;;;4.45;1.10;;;9.60;91.00;;;;;;4982222;28;20046;-73
2022/04/29 08:41:52;;;;;;;3.42;0.75;;;9.60;93.70;;;;;;4986220;28;20050;-72
2022/04/29 08:44:21;;;;;;;5.90;1.40;;;9.70;89.20;;;;;;4986624;28;20050;-72
2022/04/29 08:46:47;;;;;;;5.95;1.02;;;9.70;89.00;;;;;;4970905;28;20046;-72
2022/04/29 08:49:13;;;;;;;5.35;1.35;;;9.70;94.40;;;;;;4985880;28;20460;-73
2022/04/29 08:51:39;;;;;;;7.18;1.48;;;9.70;91.20;;;;;;4967410;28;20042;-72
2022/04/29 08:54:05;;;;;;;7.38;1.35;;;9.70;92.30;;;;;;4989567;28;20076;-72
2022/04/29 08:59:19;;;;;;;9.65;1.33;;;9.70;95.60;;;;;;4986134;28;20058;-72
2022/04/29 09:01:45;;;;;;;4.03;0.90;;;9.80;89.40;;;;;;4985648;28;20936;-72
2022/04/29 09:04:11;;;;;;;6.60;1.08;;;9.80;93.00;;;;;;4953131;28;20515;-72
2022/04/29 09:06:57;;;;;;;5.03;1.52;;;9.90;92.70;;;;;;4971340;28;20489;-71
2022/04/29 09:09:22;;;;;;;4.93;1.30;;;10.00;92.00;;;;;;4969330;28;20112;-72
2022/04/29 09:11:48;;;;;;;3.28;1.35;;;10.00;90.30;;;;;;4986707;28;20784;-72
2022/04/29 09:14:22;;;;;;;3.25;1.23;;;10.10;86.30;;;;;;4970539;28;20042;-72
2022/04/29 09:16:49;;;;;;;4.88;1.30;;;10.10;83.20;;;;;;4986368;28;20516;-72
2022/04/29 09:19:32;;;;;;;4.07;1.20;;;10.00;75.70;;;;;;4970579;28;20057;-72
2022/04/29 09:22:08;;;;;;;3.95;1.27;;;10.00;84.50;;;;;;4996719;28;20052;-72
2022/04/29 09:24:35;;;;;;;6.93;1.30;;;9.90;85.00;;;;;;4985601;28;20539;-72
2022/04/29 09:27:03;;;;;;;5.05;1.67;;;9.90;88.00;;;;;;4977406;28;20492;-72
2022/04/29 09:29:29;;;;;;;3.78;1.88;;;9.90;92.10;;;;;;5004940;28;20045;-72
2022/04/29 09:32:00;;;;;;;11.05;2.35;;;9.90;94.30;;;;;;4985111;28;20038;-72
2022/04/29 09:34:54;;;;;;;5.93;1.92;;;9.80;93.40;;;;;;4985019;28;20060;-72
2022/04/29 09:37:21;;;;;;;4.07;1.63;;;9.80;94.20;;;;;;4995709;28;20099;-71
2022/04/29 09:40:00;;;;;;;7.95;2.05;;;9.80;93.60;;;;;;5004516;28;20038;-72
2022/04/29 09:42:43;;;;;;;8.65;2.42;;;9.80;94.80;;;;;;5006376;28;20448;-72
2022/04/29 09:45:12;;;;;;;5.70;1.70;;;9.80;94.10;;;;;;4974674;28;20038;-72
2022/04/29 09:47:38;;;;;;;7.97;1.63;;;9.80;93.30;;;;;;4986098;28;20060;-72
2022/04/29 09:50:05;;;;;;;6.05;1.90;;;9.70;91.10;;;;;;4969558;28;20436;-72
2022/04/29 09:52:31;;;;;;;4.72;1.65;;;9.80;93.70;;;;;;4998928;28;20060;-72
2022/04/29 09:55:13;;;;;;;4.18;1.73;;;9.80;92.70;;;;;;5005072;28;20128;-71
2022/04/29 09:57:56;;;;;;;3.25;1.55;;;9.70;91.90;;;;;;4997185;28;20481;-72
2022/04/29 10:00:23;;;;;;;12.30;1.90;;;9.70;93.80;;;;;;4985263;28;20145;-72
2022/04/29 10:02:49;;;;;;;4.85;1.92;;;9.70;93.10;;;;;;4984982;28;20096;-72
2022/04/29 10:05:16;;;;;;;6.32;1.92;;;9.70;92.10;;;;;;4969082;28;20046;-71
2022/04/29 10:07:42;;;;;;;3.15;1.75;;;9.90;96.30;;;;;;4969205;28;20049;-72
2022/04/29 10:10:12;;;;;;;7.15;1.58;;;9.90;89.30;;;;;;5001007;28;20363;-71
2022/04/29 10:12:37;;;;;;;4.72;1.77;;;9.80;91.10;;;;;;5003934;28;20564;-72
2022/04/29 10:15:05;;;;;;;6.55;2.20;;;9.80;94.00;;;;;;4987390;28;20113;-72
2022/04/29 10:23:07;;;;;;;7.95;1.65;;;9.90;93.10;;;;;;4989268;28;20449;-73
2022/04/29 10:25:35;;;;;;;9.52;2.05;;;9.80;86.30;;;;;;5006626;28;20504;-72
2022/04/29 10:28:02;;;;;;;3.65;1.67;;;9.70;89.20;;;;;;5002787;28;20376;-72
2022/04/29 10:30:34;;;;;;;4.60;1.90;;;9.70;89.40;;;;;;5005317;28;20374;-71
2022/04/29 10:33:01;;;;;;;3.67;1.67;;;9.70;91.50;;;;;;5004000;28;20049;-72
2022/04/29 10:35:42;;;;;;;4.78;1.70;;;9.80;84.90;;;;;;5002139;28;20523;-72
2022/04/29 10:38:21;;;;;;;5.43;1.67;;;9.80;90.80;;;;;;5001036;28;20053;-73
2022/04/29 10:41:07;;;;;;;9.55;2.90;;;9.90;85.20;;;;;;5002909;28;20060;-73
2022/04/29 10:43:53;;;;;;;10.13;1.92;;;9.80;87.30;;;;;;4987532;28;20128;-73
2022/04/29 10:46:39;;;;;;;4.60;1.45;;;9.90;86.20;;;;;;4981843;28;20054;-72
2022/04/29 10:49:25;;;;;;;8.45;2.08;;;9.90;90.70;;;;;;5003983;28;20057;-74
2022/04/29 10:51:56;;;;;;;5.20;1.88;;;10.00;91.20;;;;;;5003602;28;20132;-73
2022/04/29 10:54:58;;;;;;;7.75;2.10;;;9.90;90.60;;;;;;4989339;28;20058;-73
2022/04/29 10:57:41;;;;;;;2.38;1.48;;;9.90;90.90;;;;;;4977895;28;20102;-73
2022/04/29 11:00:11;;;;;;;5.03;1.33;;;9.90;90.00;;;;;;4971564;28;20129;-73
2022/04/29 11:02:37;;;;;;;5.07;1.33;;;10.00;87.40;;;;;;4987300;28;20081;-73
2022/04/29 11:05:03;;;;;;;7.28;1.48;;;10.00;85.50;;;;;;4988196;28;20078;-72
2022/04/29 11:07:36;;;;;;;7.78;1.60;;;10.00;74.50;;;;;;4988091;28;20046;-72
2022/04/29 11:10:05;;;;;;;9.35;1.65;;;10.00;86.70;;;;;;4995673;28;20097;-72
2022/04/29 11:12:31;;;;;;;4.70;1.05;;;10.00;78.40;;;;;;4991350;28;20057;-73
2022/04/29 11:15:13;;;;;;;8.95;1.90;;;9.90;80.00;;;;;;5004975;28;20536;-73
2022/04/29 11:17:40;;;;;;;4.57;1.33;;;9.90;76.30;;;;;;4975838;28;20077;-73
2022/04/29 11:20:19;;;;;;;9.45;1.20;;;9.90;84.30;;;;;;5006420;28;20160;-73
2022/04/29 11:25:47;;;;;;;8.48;2.20;;;9.80;76.00;;;;;;4997287;28;20449;-73
2022/04/29 11:28:14;;;;;;;4.88;1.40;;;9.80;74.90;;;;;;4995156;28;20046;-72
2022/04/29 11:30:40;;;;;;;6.15;1.35;;;9.90;84.00;;;;;;4991069;28;20046;-72
2022/04/29 11:33:05;;;;;;;4.38;1.17;;;10.10;84.60;;;;;;4988859;28;20503;-72
2022/04/29 11:35:31;;;;;;;11.25;1.80;;;10.10;80.70;;;;;;5006162;28;20053;-73
2022/04/29 11:37:59;;;;;;;8.02;1.48;;;10.20;67.50;;;;;;5001475;28;20492;-73
2022/04/29 11:40:26;;;;;;;4.32;1.50;;;10.20;76.90;;;;;;5006734;28;20432;-73
2022/04/29 11:42:52;;;;;;;8.82;1.52;;;10.20;72.00;;;;;;5007004;28;20049;-73
2022/04/29 11:45:23;;;;;;;6.07;1.83;;;10.20;67.10;;;;;;4989746;28;20056;-72
2022/04/29 11:47:49;;;;;;;3.88;1.30;;;10.20;61.90;;;;;;5005225;28;20508;-73
2022/04/29 11:50:15;;;;;;;3.17;0.98;;;10.20;70.30;;;;;;4992698;28;20046;-73
2022/04/29 11:52:41;;;;;;;5.45;1.00;;;10.30;79.60;;;;;;4970704;28;20113;-73
2022/04/29 11:55:14;;;;;;;3.55;1.23;;;10.30;82.10;;;;;;4986946;28;20050;-72
2022/04/29 11:57:44;;;;;;;5.53;1.45;;;10.30;73.80;;;;;;4971412;28;20401;-72
2022/04/29 12:00:25;;;;;;;2.97;1.00;;;10.20;74.20;;;;;;4987122;28;20116;-72
2022/04/29 12:02:58;;;;;;;8.30;1.52;;;10.30;81.90;;;;;;4986860;28;20181;-72
2022/04/29 12:05:26;;;;;;;6.07;1.50;;;10.30;80.00;;;;;;4954669;28;20042;-73
2022/04/29 12:07:52;;;;;;;6.10;1.63;;;10.20;77.40;;;;;;5005319;28;20053;-73
2022/04/29 12:10:26;;;;;;;5.35;1.40;;;10.20;75.70;;;;;;4986407;28;20050;-73
2022/04/29 12:12:57;;;;;;;10.20;1.50;;;10.20;73.90;;;;;;4987034;28;20061;-73
2022/04/29 12:15:35;;;;;;;5.63;1.45;;;10.20;72.10;;;;;;4985874;28;20524;-72
2022/04/29 12:18:10;;;;;;;7.22;1.33;;;10.30;73.90;;;;;;4994771;28;20496;-72
2022/04/29 12:20:37;;;;;;;6.15;1.40;;;10.20;76.70;;;;;;5002612;28;20054;-73
2022/04/29 12:23:19;;;;;;;2.53;1.30;;;10.30;79.40;;;;;;5002184;28;20103;-72
2022/04/29 12:25:47;;;;;;;3.67;1.45;;;10.50;65.20;;;;;;5005588;28;20057;-71
2022/04/29 12:28:18;;;;;;;7.05;1.83;;;10.60;74.00;;;;;;5003057;28;20103;-71
2022/04/29 12:36:31;;;;;;;4.60;1.50;;;10.70;60.60;;;;;;4994310;28;20050;-71
2022/04/29 12:39:05;;;;;;;3.55;1.55;;;10.80;60.60;;;;;;4989124;28;20045;-70
2022/04/29 12:41:30;;;;;;;1.75;1.20;;;10.80;63.70;;;;;;4987650;28;20053;-71
2022/04/29 12:45:03;;;;;;;4.78;1.23;;;10.80;72.40;;;;;;5005925;28;20046;-71
2022/04/29 12:47:19;;;;;;;3.78;1.15;;;10.80;67.30;;;;;;5005644;28;20124;-69
2022/04/29 12:49:45;;;;;;;3.20;1.30;;;10.90;67.00;;;;;;4988981;28;20428;-70
2022/04/29 12:52:12;;;;;;;5.07;1.50;;;10.70;61.70;;;;;;4992189;28;20054;-71
2022/04/29 12:54:38;;;;;;;1.70;1.50;;;10.50;64.30;;;;;;4969762;28;20409;-71
2022/04/29 12:57:05;;;;;;;4.72;1.60;;;10.40;71.50;;;;;;4991847;28;20042;-71
2022/04/29 12:59:36;;;;;;;9.10;1.33;;;10.30;84.70;;;;;;5004901;28;20049;-71
2022/04/29 13:02:05;;;;;;;;;;;10.40;76.40;;;;;;5006525;28;20604;-71
2022/04/29 13:04:31;;;;;;;5.57;1.38;;;10.40;73.50;;;;;;5003391;28;19925;-70
2022/04/29 13:06:57;;;;;;;4.35;1.58;;;10.40;77.80;;;;;;4993140;28;20172;-70
2022/04/29 13:09:24;;;;;;;6.57;1.60;;;10.50;78.70;;;;;;4985329;28;20497;-71
2022/04/29 13:11:51;;;;;;;2.60;1.33;;;10.50;70.30;;;;;;4985292;28;20133;-70
2022/04/29 13:14:17;;;;;;;4.93;1.50;;;10.70;73.40;;;;;;4987490;28;20050;-70
2022/04/29 13:16:44;;;;;;;2.45;1.58;;;10.60;79.20;;;;;;5004880;28;20037;-70
2022/04/29 13:19:11;;;;;;;6.88;1.40;;;10.50;65.60;;;;;;4986418;28;20038;-71
2022/04/29 13:21:37;;;;;;;5.32;1.50;;;10.50;65.00;;;;;;4988009;28;20077;-71
2022/04/29 13:24:03;;;;;;;5.10;1.35;;;10.50;73.30;;;;;;5002281;28;20148;-70
2022/04/29 13:26:32;;;;;;;4.22;1.13;;;10.50;63.00;;;;;;4985429;28;20050;-71
2022/04/29 13:28:57;;;;;;;6.22;1.63;;;10.60;74.10;;;;;;5004867;28;20124;-71